createdAt,value
2022-10-08T00:02:26.054Z,12.54
2022-10-08T00:04:53.584Z,12.51
2022-10-08T00:07:21.123Z,12.51
2022-10-08T00:09:50.022Z,12.57
2022-10-08T00:12:17.993Z,12.51
2022-10-08T00:14:45.662Z,12.59
2022-10-08T00:17:13.168Z,12.59
2022-10-08T00:19:40.710Z,12.64
2022-10-08T00:22:08.263Z,12.64
2022-10-08T00:24:36.022Z,12.70
2022-10-08T00:27:04.910Z,12.76
2022-10-08T00:29:33.310Z,12.70
2022-10-08T00:32:00.865Z,12.77
2022-10-08T00:34:28.530Z,12.70
2022-10-08T00:36:56.690Z,12.77
2022-10-08T00:39:25.568Z,12.83
2022-10-08T00:41:55.514Z,12.85
2022-10-08T00:44:52.387Z,12.75
2022-10-08T00:47:31.207Z,12.76
2022-10-08T00:50:01.578Z,12.82
2022-10-08T00:52:33.724Z,12.85
2022-10-08T00:55:06.433Z,12.93
2022-10-08T00:57:35.302Z,12.97
2022-10-08T01:00:06.847Z,13.00
2022-10-08T01:02:34.461Z,12.97
2022-10-08T01:05:02.628Z,12.97
2022-10-08T01:07:37.390Z,12.95
2022-10-08T01:10:11.202Z,13.00
2022-10-08T01:12:48.225Z,12.98
2022-10-08T01:15:26.459Z,12.98
2022-10-08T01:18:04.137Z,12.88
2022-10-08T01:20:45.484Z,12.86
2022-10-08T01:23:37.608Z,12.93
2022-10-08T01:26:23.597Z,13.00
2022-10-08T01:28:57.730Z,13.04
2022-10-08T01:31:29.629Z,12.98
2022-10-08T01:34:01.814Z,13.07
2022-10-08T01:36:36.799Z,13.06
2022-10-08T01:39:09.257Z,13.16
2022-10-08T01:41:37.307Z,13.21
2022-10-08T01:44:13.675Z,13.27
2022-10-08T01:46:44.986Z,13.37
2022-10-08T01:49:17.306Z,13.36
2022-10-08T01:51:51.135Z,13.35
2022-10-08T01:54:19.558Z,13.39
2022-10-08T01:56:48.469Z,13.31
2022-10-08T01:59:22.218Z,13.26
2022-10-08T02:01:56.346Z,13.22
2022-10-08T02:04:36.916Z,13.00
2022-10-08T02:07:08.791Z,13.06
2022-10-08T02:09:39.819Z,13.11
2022-10-08T02:12:08.469Z,13.20
2022-10-08T02:14:41.166Z,13.38
2022-10-08T02:17:29.887Z,13.43
2022-10-08T02:20:00.858Z,13.45
2022-10-08T02:22:36.098Z,13.45
2022-10-08T02:25:10.663Z,13.45
2022-10-08T02:27:49.209Z,13.46
2022-10-08T02:30:18.586Z,13.39
2022-10-08T02:32:51.341Z,13.39
2022-10-08T02:35:26.857Z,13.43
2022-10-08T02:37:58.637Z,13.40
2022-10-08T02:40:29.110Z,13.33
2022-10-08T02:43:02.157Z,13.25
2022-10-08T02:45:35.604Z,13.17
2022-10-08T02:48:08.170Z,13.17
2022-10-08T02:50:40.347Z,13.16
2022-10-08T02:53:08.530Z,13.14
2022-10-08T02:55:43.973Z,13.13
2022-10-08T02:58:14.614Z,12.94
2022-10-08T03:00:50.758Z,12.90
2022-10-08T03:03:24.478Z,13.04
2022-10-08T03:05:52.769Z,13.06
2022-10-08T03:08:22.504Z,13.08
2022-10-08T03:10:50.953Z,13.09
2022-10-08T03:13:19.326Z,13.06
2022-10-08T03:15:52.231Z,13.06
2022-10-08T03:18:21.303Z,13.04
2022-10-08T03:20:51.706Z,12.99
2022-10-08T03:23:20.006Z,13.00
2022-10-08T03:25:47.534Z,12.97
2022-10-08T03:28:15.088Z,12.90
2022-10-08T03:30:42.706Z,12.89
2022-10-08T03:33:11.670Z,12.84
2022-10-08T03:35:45.477Z,12.84
2022-10-08T03:38:15.323Z,12.84
2022-10-08T03:40:43.018Z,12.88
2022-10-08T03:43:10.557Z,12.79
2022-10-08T03:45:38.122Z,12.71
2022-10-08T03:48:05.719Z,12.68
2022-10-08T03:50:34.610Z,12.64
2022-10-08T03:53:02.154Z,12.71
2022-10-08T03:55:29.714Z,12.58
2022-10-08T03:57:57.270Z,12.72
2022-10-08T04:00:24.874Z,12.67
2022-10-08T04:02:52.527Z,12.62
2022-10-08T04:05:20.163Z,12.60
2022-10-08T04:07:49.103Z,12.60
2022-10-08T04:10:16.786Z,12.63
2022-10-08T04:12:44.545Z,12.67
2022-10-08T04:15:12.622Z,12.57
2022-10-08T04:17:41.516Z,12.41
2022-10-08T04:20:10.707Z,12.37
2022-10-08T04:22:38.277Z,12.28
2022-10-08T04:25:07.539Z,12.24
2022-10-08T04:27:35.106Z,12.15
2022-10-08T04:30:02.882Z,12.07
2022-10-08T04:32:30.725Z,12.09
2022-10-08T04:34:58.248Z,12.04
2022-10-08T04:37:25.809Z,12.04
2022-10-08T04:39:53.349Z,12.02
2022-10-08T04:42:22.195Z,11.95
2022-10-08T04:44:49.750Z,11.93
2022-10-08T04:47:17.370Z,11.88
2022-10-08T04:49:44.901Z,11.78
2022-10-08T04:52:13.729Z,11.82
2022-10-08T04:54:41.294Z,11.76
2022-10-08T04:57:09.157Z,11.74
2022-10-08T04:59:49.204Z,11.62
2022-10-08T05:02:25.778Z,11.59
2022-10-08T05:04:53.557Z,11.53
2022-10-08T05:07:21.091Z,11.46
2022-10-08T05:09:48.720Z,11.46
2022-10-08T05:12:16.392Z,11.54
2022-10-08T05:14:45.473Z,11.38
2022-10-08T05:17:13.033Z,11.40
2022-10-08T05:19:40.577Z,11.38
2022-10-08T05:22:08.125Z,11.33
2022-10-08T05:24:35.668Z,11.29
2022-10-08T05:27:03.449Z,11.16
2022-10-08T05:29:31.370Z,11.16
2022-10-08T05:32:00.312Z,11.16
2022-10-08T05:34:28.339Z,11.07
2022-10-08T05:36:56.084Z,10.96
2022-10-08T05:39:23.638Z,10.79
2022-10-08T05:41:51.700Z,10.80
2022-10-08T05:44:19.274Z,10.72
2022-10-08T05:46:46.832Z,10.65
2022-10-08T05:49:19.493Z,10.61
2022-10-08T05:51:47.350Z,10.55
2022-10-08T05:54:15.333Z,10.49
2022-10-08T05:56:43.266Z,10.53
2022-10-08T05:59:17.139Z,10.45
2022-10-08T06:01:44.993Z,10.46
2022-10-08T06:04:13.137Z,10.47
2022-10-08T06:06:43.793Z,10.45
2022-10-08T06:09:13.729Z,10.42
2022-10-08T06:11:42.393Z,10.44
2022-10-08T06:14:11.937Z,10.56
2022-10-08T06:16:39.603Z,10.61
2022-10-08T06:19:08.619Z,10.63
2022-10-08T06:21:37.194Z,10.57
2022-10-08T06:24:08.132Z,10.58
2022-10-08T06:26:37.988Z,10.64
2022-10-08T06:29:06.511Z,10.64
2022-10-08T06:31:35.097Z,10.73
2022-10-08T06:34:04.189Z,10.74
2022-10-08T06:36:33.140Z,10.89
2022-10-08T06:39:02.871Z,10.87
2022-10-08T06:41:33.261Z,10.94
2022-10-08T06:44:00.832Z,11.09
2022-10-08T06:46:31.075Z,11.20
2022-10-08T06:49:00.492Z,11.31
2022-10-08T06:51:28.550Z,11.40
2022-10-08T06:54:02.848Z,11.50
2022-10-08T06:56:37.026Z,11.63
2022-10-08T06:59:05.373Z,11.75
2022-10-08T07:01:34.605Z,11.85
2022-10-08T07:04:03.249Z,11.98
2022-10-08T07:06:31.091Z,12.08
2022-10-08T07:09:01.221Z,12.14
2022-10-08T07:11:30.145Z,12.25
2022-10-08T07:13:59.275Z,12.42
2022-10-08T07:16:28.413Z,12.54
2022-10-08T07:18:58.439Z,12.67
2022-10-08T07:21:26.916Z,12.74
2022-10-08T07:23:54.506Z,12.76
2022-10-08T07:26:23.652Z,12.93
2022-10-08T07:28:53.667Z,12.89
2022-10-08T07:31:24.257Z,13.02
2022-10-08T07:33:51.953Z,13.09
2022-10-08T07:36:22.026Z,13.23
2022-10-08T07:38:53.645Z,13.39
2022-10-08T07:41:21.289Z,14.06
2022-10-08T07:43:51.662Z,14.97
2022-10-08T07:46:19.422Z,15.84
2022-10-08T07:48:48.479Z,16.24
2022-10-08T07:51:17.894Z,17.09
2022-10-08T07:53:45.970Z,17.90
2022-10-08T07:56:15.813Z,18.16
2022-10-08T07:58:44.119Z,18.90
2022-10-08T08:01:14.114Z,18.11
2022-10-08T08:03:41.715Z,18.90
2022-10-08T08:06:12.946Z,19.05
2022-10-08T08:08:42.166Z,18.58
2022-10-08T08:11:11.642Z,17.99
2022-10-08T08:13:41.211Z,18.10
2022-10-08T08:16:11.819Z,18.72
2022-10-08T08:18:41.368Z,18.37
2022-10-08T08:21:12.963Z,18.35
2022-10-08T08:23:42.394Z,18.24
2022-10-08T08:26:12.585Z,17.83
2022-10-08T08:28:40.444Z,18.30
2022-10-08T08:31:10.377Z,17.69
2022-10-08T08:33:38.151Z,17.45
2022-10-08T08:36:06.482Z,18.36
2022-10-08T08:38:37.162Z,18.39
2022-10-08T08:41:20.460Z,18.08
2022-10-08T08:43:49.041Z,17.30
2022-10-08T08:46:22.070Z,17.45
2022-10-08T08:48:54.198Z,17.81
2022-10-08T08:51:21.801Z,18.44
2022-10-08T08:53:50.835Z,18.32
2022-10-08T08:56:23.010Z,18.61
2022-10-08T08:58:58.477Z,18.90
2022-10-08T09:01:31.853Z,18.91
2022-10-08T09:04:05.711Z,18.17
2022-10-08T09:06:35.770Z,17.53
2022-10-08T09:09:14.878Z,17.22
2022-10-08T09:11:44.095Z,17.04
2022-10-08T09:14:26.164Z,17.05
2022-10-08T09:16:54.252Z,16.81
2022-10-08T09:19:22.213Z,16.75
2022-10-08T09:21:49.780Z,16.87
2022-10-08T09:24:20.414Z,16.97
2022-10-08T09:26:47.983Z,17.27
2022-10-08T09:29:33.382Z,17.44
2022-10-08T09:32:01.014Z,18.61
2022-10-08T09:34:28.685Z,18.33
2022-10-08T09:37:05.500Z,18.10
2022-10-08T09:39:37.063Z,17.50
2022-10-08T09:42:17.218Z,17.36
2022-10-08T09:44:46.550Z,17.32
2022-10-08T09:47:15.793Z,17.22
2022-10-08T09:49:44.851Z,17.21
2022-10-08T09:52:19.687Z,17.95
2022-10-08T09:54:52.006Z,19.23
2022-10-08T09:57:22.640Z,19.52
2022-10-08T09:59:53.739Z,19.30
2022-10-08T10:02:30.900Z,19.43
2022-10-08T10:05:00.209Z,19.42
2022-10-08T10:07:39.081Z,19.94
2022-10-08T10:10:15.701Z,19.34
2022-10-08T10:12:47.404Z,19.75
2022-10-08T10:15:19.370Z,20.27
2022-10-08T10:17:53.993Z,20.44
2022-10-08T10:20:25.890Z,20.44
2022-10-08T10:22:56.387Z,21.55
2022-10-08T10:25:35.517Z,21.79
2022-10-08T10:28:07.728Z,21.71
2022-10-08T10:30:47.386Z,21.98
2022-10-08T10:33:19.574Z,20.44
2022-10-08T10:35:51.531Z,20.54
2022-10-08T10:38:25.038Z,20.60
2022-10-08T10:41:06.942Z,20.69
2022-10-08T10:43:41.930Z,21.30
2022-10-08T10:46:20.286Z,21.21
2022-10-08T10:48:47.938Z,21.63
2022-10-08T10:51:29.013Z,21.14
2022-10-08T10:54:12.571Z,19.88
2022-10-08T10:56:46.980Z,19.43
2022-10-08T10:59:33.727Z,20.44
2022-10-08T11:02:11.466Z,19.99
2022-10-08T11:04:46.832Z,20.80
2022-10-08T11:07:38.805Z,20.30
2022-10-08T11:10:17.104Z,21.60
2022-10-08T11:12:55.030Z,20.74
2022-10-08T11:15:30.432Z,20.41
2022-10-08T11:18:15.433Z,19.92
2022-10-08T11:21:01.774Z,19.71
2022-10-08T11:23:46.666Z,20.08
2022-10-08T11:26:23.094Z,20.25
2022-10-08T11:29:07.175Z,19.09
2022-10-08T11:31:42.334Z,18.65
2022-10-08T11:34:30.519Z,18.94
2022-10-08T11:37:08.741Z,18.75
2022-10-08T11:39:46.614Z,18.78
2022-10-08T11:42:20.640Z,18.44
2022-10-08T11:44:49.554Z,18.47
2022-10-08T11:47:36.658Z,18.45
2022-10-08T11:50:06.487Z,18.10
2022-10-08T11:52:35.542Z,17.84
2022-10-08T11:55:03.215Z,17.65
2022-10-08T11:58:07.094Z,17.57
2022-10-08T12:00:36.058Z,17.48
2022-10-08T12:03:06.616Z,17.19
2022-10-08T12:05:41.324Z,17.02
2022-10-08T12:08:08.972Z,16.93
2022-10-08T12:10:38.136Z,17.40
2022-10-08T12:13:28.621Z,17.57
2022-10-08T12:16:04.843Z,17.78
2022-10-08T12:18:53.766Z,18.47
2022-10-08T12:21:50.114Z,18.55
2022-10-08T12:24:56.623Z,18.89
2022-10-08T12:27:26.138Z,18.68
2022-10-08T12:29:55.752Z,17.94
2022-10-08T12:32:26.315Z,17.87
2022-10-08T12:34:53.959Z,17.99
2022-10-08T12:37:53.345Z,18.12
2022-10-08T12:40:31.153Z,17.72
2022-10-08T12:43:15.321Z,17.50
2022-10-08T12:45:50.866Z,17.38
2022-10-08T12:48:32.145Z,17.70
2022-10-08T12:51:10.255Z,17.67
2022-10-08T12:53:38.126Z,17.71
2022-10-08T12:56:06.131Z,17.59
2022-10-08T12:58:37.509Z,18.26
2022-10-08T13:01:07.003Z,18.47
2022-10-08T13:03:35.925Z,18.55
2022-10-08T13:06:15.871Z,18.86
2022-10-08T13:08:43.603Z,18.97
2022-10-08T13:11:13.209Z,18.54
2022-10-08T13:13:48.934Z,18.64
2022-10-08T13:16:18.518Z,18.57
2022-10-08T13:18:53.876Z,18.25
2022-10-08T13:21:36.753Z,17.79
2022-10-08T13:24:26.071Z,18.65
2022-10-08T13:26:54.826Z,19.87
2022-10-08T13:29:29.547Z,20.33
2022-10-08T13:31:59.278Z,20.62
2022-10-08T13:34:31.846Z,20.44
2022-10-08T13:37:01.390Z,20.69
2022-10-08T13:39:31.645Z,20.90
2022-10-08T13:42:01.844Z,20.71
2022-10-08T13:44:29.783Z,20.16
2022-10-08T13:47:03.309Z,20.52
2022-10-08T13:49:33.851Z,20.21
2022-10-08T13:52:02.602Z,20.12
2022-10-08T13:54:32.518Z,20.21
2022-10-08T13:57:00.710Z,20.36
2022-10-08T13:59:30.711Z,20.55
2022-10-08T14:01:58.692Z,20.49
2022-10-08T14:04:26.857Z,20.33
2022-10-08T14:06:57.740Z,19.45
2022-10-08T14:09:27.866Z,19.93
2022-10-08T14:11:57.114Z,19.49
2022-10-08T14:14:26.273Z,19.54
2022-10-08T14:16:54.835Z,19.11
2022-10-08T14:19:22.666Z,20.00
2022-10-08T14:21:52.728Z,20.34
2022-10-08T14:24:21.692Z,20.60
2022-10-08T14:26:49.848Z,19.98
2022-10-08T14:29:17.395Z,19.99
2022-10-08T14:31:45.100Z,19.82
2022-10-08T14:34:12.654Z,19.09
2022-10-08T14:36:44.662Z,19.60
2022-10-08T14:39:12.305Z,19.98
2022-10-08T14:41:43.097Z,19.82
2022-10-08T14:44:10.902Z,19.82
2022-10-08T14:46:38.615Z,19.82
2022-10-08T14:49:06.166Z,19.70
2022-10-08T14:51:38.494Z,19.84
2022-10-08T14:54:06.961Z,19.91
2022-10-08T14:56:34.629Z,20.23
2022-10-08T14:59:03.622Z,20.25
2022-10-08T15:01:31.617Z,20.43
2022-10-08T15:03:59.429Z,20.10
2022-10-08T15:06:27.106Z,20.08
2022-10-08T15:08:54.670Z,20.39
2022-10-08T15:11:22.310Z,20.44
2022-10-08T15:13:49.944Z,20.34
2022-10-08T15:16:18.958Z,19.85
2022-10-08T15:18:46.550Z,19.69
2022-10-08T15:21:14.133Z,20.37
2022-10-08T15:23:41.769Z,20.03
2022-10-08T15:26:14.595Z,19.55
2022-10-08T15:28:43.263Z,19.87
2022-10-08T15:31:13.447Z,19.60
2022-10-08T15:33:44.442Z,19.56
2022-10-08T15:36:19.582Z,19.24
2022-10-08T15:38:47.663Z,18.71
2022-10-08T15:41:17.254Z,18.73
2022-10-08T15:43:44.892Z,18.41
2022-10-08T15:46:15.591Z,18.64
2022-10-08T15:48:52.009Z,18.69
2022-10-08T15:51:19.598Z,18.64
2022-10-08T15:53:47.268Z,18.42
2022-10-08T15:56:15.127Z,18.50
2022-10-08T15:58:51.414Z,18.48
2022-10-08T16:01:21.284Z,18.22
2022-10-08T16:03:52.670Z,18.01
2022-10-08T16:06:23.081Z,17.79
2022-10-08T16:08:51.120Z,17.86
2022-10-08T16:11:20.904Z,17.80
2022-10-08T16:13:50.796Z,17.57
2022-10-08T16:16:18.836Z,17.60
2022-10-08T16:18:50.774Z,17.36
2022-10-08T16:21:21.139Z,17.18
2022-10-08T16:23:49.426Z,17.00
2022-10-08T16:26:20.738Z,16.87
2022-10-08T16:28:49.877Z,16.52
2022-10-08T16:31:18.075Z,16.42
2022-10-08T16:33:46.534Z,16.11
2022-10-08T16:36:15.500Z,15.87
2022-10-08T16:38:44.437Z,15.69
2022-10-08T16:41:16.539Z,15.30
2022-10-08T16:43:46.240Z,15.18
2022-10-08T16:46:19.149Z,15.01
2022-10-08T16:48:51.779Z,14.82
2022-10-08T16:51:19.583Z,14.55
2022-10-08T16:53:53.160Z,14.30
2022-10-08T16:56:22.259Z,14.16
2022-10-08T16:58:52.884Z,14.04
2022-10-08T17:01:21.456Z,13.96
2022-10-08T17:03:49.556Z,13.78
2022-10-08T17:06:17.500Z,13.73
2022-10-08T17:08:45.374Z,13.56
2022-10-08T17:11:15.644Z,13.45
2022-10-08T17:13:43.908Z,13.21
2022-10-08T17:16:12.459Z,13.08
2022-10-08T17:18:40.861Z,13.03
2022-10-08T17:21:08.668Z,12.91
2022-10-08T17:23:38.250Z,12.86
2022-10-08T17:26:08.217Z,12.80
2022-10-08T17:28:39.462Z,12.69
2022-10-08T17:31:08.369Z,12.69
2022-10-08T17:33:36.604Z,12.62
2022-10-08T17:36:06.801Z,12.47
2022-10-08T17:38:35.147Z,12.35
2022-10-08T17:41:09.746Z,12.22
2022-10-08T17:43:38.653Z,12.15
2022-10-08T17:46:07.543Z,12.12
2022-10-08T17:48:35.218Z,12.15
2022-10-08T17:51:03.506Z,12.09
2022-10-08T17:53:31.938Z,12.00
2022-10-08T17:56:00.789Z,11.81
2022-10-08T17:58:28.761Z,11.71
2022-10-08T18:01:06.818Z,11.71
2022-10-08T18:03:34.535Z,11.64
2022-10-08T18:06:02.349Z,11.59
2022-10-08T18:08:29.975Z,11.55
2022-10-08T18:10:57.569Z,11.48
2022-10-08T18:13:25.168Z,11.49
2022-10-08T18:15:52.771Z,11.31
2022-10-08T18:18:21.668Z,11.28
2022-10-08T18:20:56.087Z,11.25
2022-10-08T18:23:23.726Z,11.26
2022-10-08T18:25:53.991Z,11.20
2022-10-08T18:28:22.801Z,11.11
2022-10-08T18:30:50.425Z,11.13
2022-10-08T18:33:20.699Z,11.10
2022-10-08T18:35:52.946Z,10.97
2022-10-08T18:38:20.514Z,10.98
2022-10-08T18:40:48.045Z,10.96
2022-10-08T18:43:15.563Z,10.97
2022-10-08T18:45:43.095Z,10.92
2022-10-08T18:48:10.619Z,10.81
2022-10-08T18:50:38.164Z,10.76
2022-10-08T18:53:07.297Z,10.68
2022-10-08T18:55:34.849Z,10.67
2022-10-08T18:58:02.805Z,10.62
2022-10-08T19:00:30.411Z,10.58
2022-10-08T19:02:58.257Z,10.46
2022-10-08T19:05:25.998Z,10.43
2022-10-08T19:07:53.679Z,10.38
2022-10-08T19:10:22.639Z,10.39
2022-10-08T19:12:50.651Z,10.42
2022-10-08T19:15:19.053Z,10.21
2022-10-08T19:17:46.734Z,10.17
2022-10-08T19:20:14.710Z,10.24
2022-10-08T19:22:42.404Z,10.38
2022-10-08T19:25:10.211Z,10.32
2022-10-08T19:27:39.248Z,10.26
2022-10-08T19:30:08.039Z,10.15
2022-10-08T19:32:35.715Z,10.10
2022-10-08T19:35:03.508Z,10.01
2022-10-08T19:37:31.200Z,10.01
2022-10-08T19:39:58.810Z,10.03
2022-10-08T19:42:26.507Z,10.08
2022-10-08T19:44:55.954Z,10.02
2022-10-08T19:47:23.656Z,10.01
2022-10-08T19:49:51.260Z,9.96
2022-10-08T19:52:18.907Z,10.06
2022-10-08T19:54:46.551Z,10.00
2022-10-08T19:57:14.155Z,9.97
2022-10-08T19:59:41.787Z,9.88
2022-10-08T20:02:12.037Z,9.98
2022-10-08T20:04:39.675Z,10.02
2022-10-08T20:07:07.340Z,9.96
2022-10-08T20:09:36.154Z,9.82
2022-10-08T20:12:04.201Z,9.70
2022-10-08T20:14:32.020Z,9.70
2022-10-08T20:16:59.674Z,9.69
2022-10-08T20:19:28.709Z,9.62
2022-10-08T20:21:56.535Z,9.62
2022-10-08T20:24:24.154Z,9.61
2022-10-08T20:26:51.841Z,9.51
2022-10-08T20:29:21.227Z,9.49
2022-10-08T20:31:50.694Z,9.39
2022-10-08T20:34:20.330Z,9.38
2022-10-08T20:36:50.444Z,9.42
2022-10-08T20:39:20.088Z,9.42
2022-10-08T20:41:48.406Z,9.32
2022-10-08T20:44:16.704Z,9.28
2022-10-08T20:46:44.906Z,9.19
2022-10-08T20:49:13.983Z,9.23
2022-10-08T20:51:43.183Z,9.17
2022-10-08T20:54:14.590Z,9.17
2022-10-08T20:56:43.199Z,9.15
2022-10-08T20:59:14.743Z,9.20
2022-10-08T21:01:44.319Z,9.13
2022-10-08T21:04:12.131Z,9.06
2022-10-08T21:06:41.041Z,8.98
2022-10-08T21:09:09.175Z,9.00
2022-10-08T21:11:38.619Z,8.86
2022-10-08T21:14:07.439Z,8.89
2022-10-08T21:16:37.079Z,8.87
2022-10-08T21:19:06.422Z,8.71
2022-10-08T21:21:35.254Z,8.72
2022-10-08T21:24:03.293Z,8.65
2022-10-08T21:26:33.314Z,8.65
2022-10-08T21:29:05.686Z,8.55
2022-10-08T21:31:35.721Z,8.50
2022-10-08T21:34:03.332Z,8.51
2022-10-08T21:36:32.810Z,8.46
2022-10-08T21:39:01.342Z,8.44
2022-10-08T21:41:31.187Z,8.38
2022-10-08T21:44:00.870Z,8.33
2022-10-08T21:46:31.950Z,8.32
2022-10-08T21:49:01.558Z,8.21
2022-10-08T21:51:31.011Z,8.27
2022-10-08T21:54:00.507Z,8.24
2022-10-08T21:56:29.915Z,8.14
2022-10-08T21:58:59.481Z,8.07
2022-10-08T22:01:31.985Z,8.07
2022-10-08T22:04:01.017Z,8.07
2022-10-08T22:06:31.128Z,8.09
2022-10-08T22:08:58.974Z,8.02
2022-10-08T22:11:27.251Z,8.01
2022-10-08T22:13:54.798Z,7.96
2022-10-08T22:16:23.521Z,7.86
2022-10-08T22:18:52.817Z,7.88
2022-10-08T22:21:21.654Z,7.86
2022-10-08T22:23:50.185Z,7.79
2022-10-08T22:26:19.598Z,7.82
2022-10-08T22:28:47.320Z,7.80
2022-10-08T22:31:17.009Z,7.71
2022-10-08T22:33:44.676Z,7.66
2022-10-08T22:36:16.048Z,7.56
2022-10-08T22:38:44.590Z,7.53
2022-10-08T22:41:14.491Z,7.50
2022-10-08T22:43:43.013Z,7.57
2022-10-08T22:46:13.406Z,7.50
2022-10-08T22:48:41.088Z,7.42
2022-10-08T22:51:11.525Z,7.44
2022-10-08T22:53:41.019Z,7.39
2022-10-08T22:56:11.766Z,7.41
2022-10-08T22:58:39.440Z,7.41
2022-10-08T23:01:08.913Z,7.44
2022-10-08T23:03:37.108Z,7.29
2022-10-08T23:06:07.346Z,7.22
2022-10-08T23:08:36.261Z,7.19
2022-10-08T23:11:05.916Z,7.22
2022-10-08T23:13:34.426Z,7.21
2022-10-08T23:16:03.561Z,7.14
2022-10-08T23:18:31.845Z,7.11
2022-10-08T23:21:02.295Z,7.05
2022-10-08T23:23:30.796Z,6.98
2022-10-08T23:25:59.932Z,7.05
2022-10-08T23:28:29.819Z,7.01
2022-10-08T23:31:04.795Z,6.97
2022-10-08T23:33:32.662Z,6.88
2022-10-08T23:36:00.375Z,6.87
2022-10-08T23:38:28.194Z,6.85
2022-10-08T23:41:00.986Z,6.76
2022-10-08T23:43:34.305Z,6.88
2022-10-08T23:46:02.024Z,6.82
2022-10-08T23:48:29.851Z,6.80
2022-10-08T23:50:57.474Z,6.75
2022-10-08T23:53:25.142Z,6.72
2022-10-08T23:55:52.778Z,6.73
2022-10-08T23:58:20.434Z,6.65
